Time;durP1;ratioP1;P1;durP2;ratioP2;P2;SDS_P1;SDS_P2;PMS_P1;PMS_P2;Temp;Humidity;BMP_temperature;BMP_pressure;BME280_temperature;BME280_humidity;BME280_pressure;Samples;Min_cycle;Max_cycle;Signal;HPM_P1;HPM_P2
2023/08/28 00:04:43;;;;;;;4.10;3.80;;;18.10;99.90;;;;;;10494439;28;20374;-78
2023/08/28 00:09:45;;;;;;;4.90;3.70;;;18.00;99.90;;;;;;10498065;28;20830;-79
2023/08/28 00:14:48;;;;;;;4.57;4.07;;;18.10;99.90;;;;;;10495767;28;20221;-78
2023/08/28 00:19:51;;;;;;;3.60;3.40;;;18.00;99.90;;;;;;10499132;28;20220;-78
2023/08/28 00:24:53;;;;;;;5.03;3.70;;;18.00;99.90;;;;;;10497027;28;20243;-79
2023/08/28 00:29:55;;;;;;;4.40;3.67;;;17.90;99.90;;;;;;10502377;28;20197;-79
2023/08/28 00:35:00;;;;;;;3.90;3.50;;;17.80;99.90;;;;;;10495544;28;20656;-79
2023/08/28 00:40:03;;;;;;;7.13;3.87;;;17.80;99.90;;;;;;10478032;28;20254;-79
2023/08/28 00:45:05;;;;;;;3.83;3.63;;;17.80;99.90;;;;;;10493255;28;20230;-79
2023/08/28 00:50:10;;;;;;;3.90;3.60;;;17.80;99.90;;;;;;10494870;28;20652;-79
2023/08/28 00:55:12;;;;;;;4.07;3.77;;;17.70;99.90;;;;;;10498254;28;20213;-79
2023/08/28 01:00:15;;;;;;;3.60;3.50;;;17.70;99.90;;;;;;10494806;28;20201;-79
2023/08/28 01:05:19;;;;;;;4.90;3.87;;;17.70;99.90;;;;;;10493906;28;20235;-78
2023/08/28 01:10:27;;;;;;;4.30;3.90;;;17.70;99.90;;;;;;10492738;28;20205;-78
2023/08/28 01:15:31;;;;;;;3.80;3.30;;;17.70;99.90;;;;;;10495414;28;20279;-78
2023/08/28 01:20:37;;;;;;;3.70;3.43;;;17.70;99.90;;;;;;10521103;28;20220;-79
2023/08/28 01:25:41;;;;;;;3.70;3.50;;;17.70;99.90;;;;;;10526173;28;20284;-79
2023/08/28 01:30:44;;;;;;;3.83;3.50;;;17.70;99.90;;;;;;10506947;28;20205;-79
2023/08/28 01:35:53;;;;;;;3.47;3.27;;;17.60;99.90;;;;;;10524020;28;20221;-79
2023/08/28 01:40:59;;;;;;;3.83;3.53;;;17.60;99.90;;;;;;10522514;28;20213;-78
2023/08/28 01:46:02;;;;;;;3.37;3.20;;;17.60;99.90;;;;;;10505817;28;20229;-79
2023/08/28 01:51:04;;;;;;;3.23;3.13;;;17.60;99.90;;;;;;10524019;28;20198;-79
2023/08/28 01:56:25;;;;;;;3.97;3.63;;;17.50;99.90;;;;;;10518016;28;20303;-79
2023/08/28 02:01:28;;;;;;;3.33;3.13;;;17.60;99.90;;;;;;10501452;28;20197;-80
2023/08/28 02:06:31;;;;;;;3.43;3.33;;;17.60;99.90;;;;;;10508709;28;20299;-79
2023/08/28 02:11:34;;;;;;;3.67;3.50;;;17.60;99.90;;;;;;10506431;28;20292;-79
2023/08/28 02:16:38;;;;;;;4.90;3.47;;;17.50;99.90;;;;;;10512903;28;20225;-79
2023/08/28 02:21:40;;;;;;;5.50;3.40;;;17.50;99.90;;;;;;10507514;28;20193;-79
2023/08/28 02:26:44;;;;;;;3.87;3.50;;;17.50;99.90;;;;;;10508003;28;20225;-80
2023/08/28 02:31:46;;;;;;;3.43;3.23;;;17.50;99.90;;;;;;10507507;28;20259;-80
2023/08/28 02:36:48;;;;;;;3.67;3.47;;;17.50;99.90;;;;;;10507478;28;20260;-78
2023/08/28 02:41:51;;;;;;;3.30;3.10;;;17.50;99.90;;;;;;10506514;28;20251;-79
2023/08/28 02:46:53;;;;;;;3.57;3.37;;;17.50;99.90;;;;;;10508447;28;20221;-78
2023/08/28 02:51:55;;;;;;;3.93;3.50;;;17.40;99.90;;;;;;10504908;28;20224;-78
2023/08/28 02:57:00;;;;;;;4.30;3.90;;;17.40;99.90;;;;;;10507473;28;20193;-78
2023/08/28 03:02:02;;;;;;;3.90;3.70;;;17.40;99.90;;;;;;10505022;28;20197;-78
2023/08/28 03:07:04;;;;;;;4.00;3.73;;;17.40;99.90;;;;;;10506794;28;20217;-78
2023/08/28 03:12:08;;;;;;;4.60;3.97;;;17.40;99.90;;;;;;10503300;28;20200;-79
2023/08/28 03:17:10;;;;;;;3.70;3.53;;;17.40;99.90;;;;;;10505718;28;20239;-79
2023/08/28 03:22:12;;;;;;;4.57;3.00;;;17.40;99.90;;;;;;10504245;28;20201;-78
2023/08/28 03:27:16;;;;;;;4.50;4.20;;;17.30;99.90;;;;;;10505144;28;20217;-79
2023/08/28 03:32:18;;;;;;;4.20;4.00;;;17.40;99.90;;;;;;10503181;28;20225;-78
2023/08/28 03:37:20;;;;;;;4.20;4.00;;;17.40;99.90;;;;;;10506304;28;20668;-78
2023/08/28 03:42:23;;;;;;;3.90;3.70;;;17.40;99.90;;;;;;10504485;28;20275;-79
2023/08/28 03:47:25;;;;;;;4.40;4.10;;;17.40;99.90;;;;;;10507010;28;20292;-79
2023/08/28 03:52:27;;;;;;;6.40;4.23;;;17.50;99.90;;;;;;10502259;28;20225;-78
2023/08/28 03:57:34;;;;;;;4.13;3.93;;;17.40;99.90;;;;;;10501678;28;20211;-78
2023/08/28 04:02:37;;;;;;;4.60;3.90;;;17.40;99.90;;;;;;10501816;28;20217;-79
2023/08/28 04:07:39;;;;;;;4.23;4.00;;;17.50;99.90;;;;;;10502586;28;20201;-79
2023/08/28 04:12:43;;;;;;;4.60;4.40;;;17.50;99.90;;;;;;10497535;28;20233;-80
2023/08/28 04:17:45;;;;;;;3.83;3.53;;;17.50;99.90;;;;;;10497139;28;20231;-79
2023/08/28 04:22:47;;;;;;;4.60;4.30;;;17.50;99.90;;;;;;10500708;28;20316;-78
2023/08/28 04:27:50;;;;;;;4.30;3.90;;;17.50;99.90;;;;;;10502064;28;20201;-78
2023/08/28 04:32:54;;;;;;;4.13;3.90;;;17.50;99.90;;;;;;10499610;28;20255;-80
2023/08/28 04:37:56;;;;;;;3.40;3.20;;;17.60;99.90;;;;;;10502340;28;20205;-79
2023/08/28 04:43:00;;;;;;;4.10;3.80;;;17.60;99.90;;;;;;10500710;28;20683;-80
2023/08/28 04:48:03;;;;;;;4.23;4.00;;;17.70;99.90;;;;;;10499476;28;20193;-79
2023/08/28 04:53:05;;;;;;;3.90;3.60;;;17.70;99.90;;;;;;10495235;28;20244;-80
2023/08/28 04:58:09;;;;;;;5.00;2.67;;;17.70;99.90;;;;;;10501994;28;20228;-79
2023/08/28 05:03:11;;;;;;;4.80;4.00;;;17.70;99.90;;;;;;10501132;28;20229;-79
2023/08/28 05:08:13;;;;;;;4.20;4.00;;;17.80;99.90;;;;;;10500486;28;20568;-80
2023/08/28 05:13:17;;;;;;;4.20;3.90;;;17.70;99.90;;;;;;10499135;28;20275;-78
2023/08/28 05:18:19;;;;;;;3.77;3.57;;;17.70;99.90;;;;;;10480895;28;20201;-78
2023/08/28 05:23:25;;;;;;;4.27;3.97;;;17.70;99.90;;;;;;10494935;22;20264;-79
2023/08/28 05:28:31;;;;;;;4.27;4.07;;;17.70;99.90;;;;;;10411347;28;20195;-79
2023/08/28 05:33:34;;;;;;;5.70;5.30;;;17.70;99.90;;;;;;10408630;28;20214;-79
2023/08/28 05:38:36;;;;;;;4.30;4.00;;;17.70;99.90;;;;;;10418806;28;20278;-79
2023/08/28 05:43:41;;;;;;;4.40;4.10;;;17.80;99.90;;;;;;10424116;28;20283;-79
2023/08/28 05:48:44;;;;;;;4.80;4.50;;;17.80;99.90;;;;;;10426399;28;20198;-79
2023/08/28 05:53:46;;;;;;;5.10;4.60;;;17.80;99.90;;;;;;10409853;28;20222;-78
2023/08/28 05:58:50;;;;;;;4.80;4.40;;;17.90;99.90;;;;;;10418835;28;20639;-78
2023/08/28 06:03:55;;;;;;;4.50;4.20;;;17.90;99.90;;;;;;10404559;28;20221;-78
2023/08/28 06:08:58;;;;;;;4.17;3.83;;;17.90;99.90;;;;;;10403270;28;20222;-78
2023/08/28 06:14:01;;;;;;;5.30;4.80;;;18.00;99.90;;;;;;10391365;28;20229;-77
2023/08/28 06:19:04;;;;;;;3.87;3.47;;;18.00;99.90;;;;;;10408388;28;20210;-78
2023/08/28 06:24:07;;;;;;;5.70;4.83;;;18.10;99.90;;;;;;10377721;28;20245;-78
2023/08/28 06:29:11;;;;;;;4.63;4.23;;;18.10;99.90;;;;;;10412538;28;20207;-78
2023/08/28 06:34:14;;;;;;;4.90;4.50;;;18.10;99.90;;;;;;10394145;28;20229;-78
2023/08/28 06:39:18;;;;;;;5.47;4.97;;;18.20;99.90;;;;;;10411871;28;20206;-78
2023/08/28 06:44:21;;;;;;;5.87;5.33;;;18.20;99.90;;;;;;10411788;28;20226;-79
2023/08/28 06:49:23;;;;;;;4.63;4.30;;;18.20;99.90;;;;;;10416342;28;20202;-79
2023/08/28 06:54:25;;;;;;;6.17;5.53;;;18.20;99.90;;;;;;10421185;28;20639;-79
2023/08/28 06:59:28;;;;;;;7.30;6.70;;;18.30;99.90;;;;;;10422416;28;20626;-79
2023/08/28 07:04:30;;;;;;;5.53;5.03;;;18.30;99.90;;;;;;10420238;28;20788;-79
2023/08/28 07:09:33;;;;;;;5.83;5.33;;;18.40;99.90;;;;;;10421826;28;20199;-78
2023/08/28 07:14:36;;;;;;;5.20;4.87;;;18.40;99.90;;;;;;10409239;28;20245;-79
2023/08/28 07:19:39;;;;;;;4.57;4.17;;;18.40;99.90;;;;;;10430481;28;20732;-78
2023/08/28 07:24:41;;;;;;;6.00;5.40;;;18.40;99.90;;;;;;10431676;28;20223;-78
2023/08/28 07:29:44;;;;;;;6.10;5.50;;;18.40;99.90;;;;;;10430584;28;20290;-79
2023/08/28 07:34:46;;;;;;;6.00;5.23;;;18.50;99.90;;;;;;10418636;28;20265;-79
2023/08/28 07:39:49;;;;;;;4.33;4.03;;;18.50;99.90;;;;;;10421011;28;20241;-79
2023/08/28 07:44:53;;;;;;;5.67;4.77;;;18.50;99.90;;;;;;10419991;28;20349;-79
2023/08/28 07:49:55;;;;;;;5.23;4.83;;;18.50;99.90;;;;;;10419142;28;20260;-79
2023/08/28 07:54:57;;;;;;;4.90;4.23;;;18.60;99.90;;;;;;10417363;28;20303;-79
2023/08/28 08:00:01;;;;;;;4.17;3.77;;;18.70;99.90;;;;;;10417148;28;20202;-79
2023/08/28 08:05:04;;;;;;;3.40;3.20;;;18.80;99.90;;;;;;10400238;28;20230;-79
2023/08/28 08:10:07;;;;;;;3.97;3.73;;;18.90;99.90;;;;;;10417658;28;20195;-79
2023/08/28 08:15:11;;;;;;;4.47;3.80;;;19.00;99.90;;;;;;10398172;28;20609;-79
2023/08/28 08:20:15;;;;;;;4.00;3.73;;;19.10;99.90;;;;;;10423842;28;20199;-78
2023/08/28 08:25:17;;;;;;;3.10;2.70;;;19.10;99.90;;;;;;10421262;28;20230;-79
2023/08/28 08:30:21;;;;;;;3.70;3.40;;;19.20;99.90;;;;;;10416806;28;20752;-74
2023/08/28 08:35:23;;;;;;;4.23;3.47;;;19.20;99.90;;;;;;10421901;28;20219;-78
2023/08/28 08:40:26;;;;;;;3.00;2.80;;;19.20;99.90;;;;;;10423410;28;20229;-79
2023/08/28 08:45:30;;;;;;;3.20;3.00;;;19.20;99.90;;;;;;10416536;28;20230;-79
2023/08/28 08:50:36;;;;;;;3.30;3.00;;;19.30;99.90;;;;;;10417400;28;20202;-79
2023/08/28 08:55:42;;;;;;;3.70;2.93;;;19.40;99.90;;;;;;10415182;28;20327;-79
2023/08/28 09:00:45;;;;;;;3.00;2.70;;;19.50;99.90;;;;;;10414267;28;20229;-78
2023/08/28 09:05:50;;;;;;;3.40;3.20;;;19.40;99.90;;;;;;10415708;28;20227;-79
2023/08/28 09:10:52;;;;;;;2.73;2.60;;;19.40;99.90;;;;;;10414693;28;20210;-79
2023/08/28 09:15:55;;;;;;;2.90;2.70;;;19.40;99.90;;;;;;10412972;28;20238;-79
2023/08/28 09:21:08;;;;;;;3.20;3.00;;;19.40;99.90;;;;;;10397818;28;20583;-79
2023/08/28 09:26:13;;;;;;;3.03;2.57;;;19.50;99.90;;;;;;10416051;28;20245;-79
2023/08/28 09:31:28;;;;;;;1.90;1.80;;;19.50;99.90;;;;;;10397122;28;20261;-79
2023/08/28 09:36:34;;;;;;;2.97;2.77;;;19.50;99.90;;;;;;10417321;28;20200;-79
2023/08/28 09:41:39;;;;;;;2.57;2.40;;;19.50;99.90;;;;;;10414988;28;20222;-79
2023/08/28 09:46:44;;;;;;;3.13;2.83;;;19.70;99.90;;;;;;10419187;28;20392;-79
2023/08/28 09:51:50;;;;;;;2.70;2.50;;;19.80;99.90;;;;;;10412406;28;20756;-80
2023/08/28 09:56:52;;;;;;;3.30;2.50;;;19.90;99.90;;;;;;10413081;28;20237;-79
2023/08/28 10:01:56;;;;;;;2.80;2.60;;;19.90;99.90;;;;;;10412338;28;20261;-79
2023/08/28 10:06:59;;;;;;;2.47;2.27;;;20.20;99.90;;;;;;10413220;28;20723;-79
2023/08/28 10:12:02;;;;;;;4.30;2.23;;;20.60;99.90;;;;;;10412143;28;20226;-79
2023/08/28 10:17:08;;;;;;;2.63;2.20;;;20.90;99.90;;;;;;10412900;28;20203;-79
2023/08/28 10:22:10;;;;;;;1.87;1.77;;;20.90;99.90;;;;;;10412439;28;20233;-79
2023/08/28 10:27:14;;;;;;;1.77;1.67;;;21.10;99.90;;;;;;10420943;28;20215;-80
2023/08/28 10:32:19;;;;;;;2.03;1.93;;;21.10;99.90;;;;;;10420908;28;20623;-79
2023/08/28 10:37:21;;;;;;;3.43;2.37;;;21.10;99.90;;;;;;10404399;28;20292;-79
2023/08/28 10:42:24;;;;;;;2.10;2.00;;;21.00;99.90;;;;;;10423758;28;20651;-79
2023/08/28 10:47:27;;;;;;;1.90;1.80;;;21.00;99.90;;;;;;10420474;28;20230;-79
2023/08/28 10:52:29;;;;;;;1.90;1.80;;;21.10;99.90;;;;;;10419551;28;20226;-79
2023/08/28 10:57:31;;;;;;;1.83;1.73;;;21.20;99.90;;;;;;10402445;28;20283;-79
2023/08/28 11:03:09;;;;;;;1.70;1.60;;;21.40;99.90;;;;;;10420018;28;20300;-79
2023/08/28 11:08:14;;;;;;;2.00;1.70;;;21.60;99.90;;;;;;10421117;28;20227;-79
2023/08/28 11:13:21;;;;;;;2.93;1.40;;;21.60;99.90;;;;;;10420177;28;20238;-80
2023/08/28 11:18:29;;;;;;;1.63;1.53;;;21.70;99.90;;;;;;10420626;28;20529;-80
2023/08/28 11:23:54;;;;;;;;;;;;;;;;;;;;;
2023/08/28 11:29:37;;;;;;;2.67;1.80;;;21.60;99.90;;;;;;10507407;28;20197;-78
2023/08/28 11:34:41;;;;;;;2.37;1.83;;;21.50;99.90;;;;;;10507585;28;20723;-78
2023/08/28 11:39:50;;;;;;;2.67;1.67;;;21.40;99.90;;;;;;10508400;28;20201;-78
2023/08/28 11:45:01;;;;;;;1.80;1.70;;;21.30;99.90;;;;;;10509169;28;20249;-79
2023/08/28 11:50:06;;;;;;;4.93;1.70;;;21.20;99.90;;;;;;10509037;28;20205;-79
2023/08/28 11:55:08;;;;;;;1.63;1.53;;;21.20;99.90;;;;;;10510391;28;20225;-78
2023/08/28 12:00:15;;;;;;;1.97;1.87;;;21.20;99.90;;;;;;10508088;28;20209;-78
2023/08/28 12:05:19;;;;;;;1.70;1.60;;;21.20;99.90;;;;;;10521710;28;20261;-80
2023/08/28 12:10:22;;;;;;;1.70;1.60;;;21.10;99.90;;;;;;10506397;28;20194;-78
2023/08/28 12:15:31;;;;;;;2.00;1.80;;;21.00;99.90;;;;;;10507493;28;20213;-79
2023/08/28 12:20:37;;;;;;;2.40;1.67;;;20.90;99.90;;;;;;10506352;28;20255;-79
2023/08/28 12:25:41;;;;;;;2.00;1.90;;;20.90;99.90;;;;;;10506917;28;20229;-79
2023/08/28 12:30:43;;;;;;;1.93;1.83;;;20.70;99.90;;;;;;10505797;28;20201;-79
2023/08/28 12:35:47;;;;;;;1.90;1.80;;;20.60;99.90;;;;;;10507692;28;20217;-78
2023/08/28 12:40:51;;;;;;;1.80;1.70;;;20.50;99.90;;;;;;10506644;28;20212;-78
2023/08/28 12:45:53;;;;;;;1.90;1.80;;;20.50;99.90;;;;;;10506969;28;20221;-78
2023/08/28 12:50:57;;;;;;;1.97;1.87;;;20.40;99.90;;;;;;10505120;28;20259;-78
2023/08/28 12:55:59;;;;;;;1.77;1.57;;;20.40;99.30;;;;;;10505672;28;20221;-78
2023/08/28 13:01:02;;;;;;;2.20;1.70;;;20.30;99.90;;;;;;10507831;28;20224;-79
2023/08/28 13:06:05;;;;;;;2.17;1.90;;;20.30;99.80;;;;;;10511680;28;20220;-78
2023/08/28 13:11:08;;;;;;;1.53;1.53;;;20.30;99.90;;;;;;10503828;28;20205;-78
2023/08/28 13:16:10;;;;;;;1.60;1.50;;;20.20;99.90;;;;;;10500822;28;20318;-78
2023/08/28 13:21:13;;;;;;;1.83;1.73;;;20.20;99.90;;;;;;10504254;28;20205;-78
2023/08/28 13:26:15;;;;;;;2.93;1.60;;;20.20;99.90;;;;;;10498988;28;20708;-78
2023/08/28 13:31:17;;;;;;;4.03;1.90;;;20.20;99.90;;;;;;10494806;28;20213;-77
2023/08/28 13:36:21;;;;;;;1.90;1.80;;;20.10;99.90;;;;;;10496878;28;20263;-78
2023/08/28 13:41:23;;;;;;;1.87;1.77;;;20.10;99.90;;;;;;10495807;28;20223;-78
2023/08/28 13:46:25;;;;;;;2.20;2.10;;;20.10;99.90;;;;;;10498607;28;20225;-78
2023/08/28 13:51:29;;;;;;;1.93;1.57;;;20.10;99.90;;;;;;10500311;28;20193;-78
2023/08/28 13:56:31;;;;;;;1.70;1.60;;;20.10;99.90;;;;;;10502388;28;20221;-78
2023/08/28 14:01:33;;;;;;;2.03;1.80;;;20.10;99.90;;;;;;10509819;28;20212;-79
2023/08/28 14:06:37;;;;;;;1.23;1.23;;;20.10;99.90;;;;;;10511378;28;20286;-78
2023/08/28 14:11:39;;;;;;;1.40;1.30;;;20.10;99.70;;;;;;10510491;28;20223;-78
2023/08/28 14:16:41;;;;;;;1.60;1.50;;;20.00;98.70;;;;;;10509955;28;20197;-78
2023/08/28 14:21:45;;;;;;;2.20;1.40;;;20.00;99.60;;;;;;10510487;28;20201;-78
2023/08/28 14:26:48;;;;;;;1.27;1.27;;;20.00;99.20;;;;;;10510442;28;20217;-78
2023/08/28 14:31:51;;;;;;;1.83;1.73;;;20.00;99.10;;;;;;10507971;28;20210;-78
2023/08/28 14:36:56;;;;;;;2.87;1.70;;;20.00;99.50;;;;;;10511057;28;20193;-78
2023/08/28 14:41:58;;;;;;;2.23;1.90;;;20.00;99.60;;;;;;10509324;28;20270;-78
2023/08/28 14:47:00;;;;;;;1.50;1.40;;;20.00;99.60;;;;;;10509622;28;20271;-78
2023/08/28 14:52:04;;;;;;;2.60;1.60;;;20.10;99.50;;;;;;10508331;28;20217;-78
2023/08/28 14:57:06;;;;;;;2.13;2.03;;;20.00;99.60;;;;;;10507297;28;20570;-78
2023/08/28 15:02:08;;;;;;;2.10;2.00;;;20.10;99.00;;;;;;10506603;28;20291;-78
2023/08/28 15:07:11;;;;;;;1.53;1.43;;;20.00;98.70;;;;;;10509589;28;20217;-78
2023/08/28 15:12:14;;;;;;;2.43;1.77;;;20.00;98.60;;;;;;10506494;28;20232;-78
2023/08/28 15:17:16;;;;;;;2.20;1.43;;;19.90;98.00;;;;;;10507688;28;20201;-78
2023/08/28 15:22:19;;;;;;;3.87;1.90;;;19.80;99.00;;;;;;10505717;28;20719;-78
2023/08/28 15:27:21;;;;;;;1.60;1.50;;;19.80;99.10;;;;;;10507559;28;20249;-78
2023/08/28 15:32:23;;;;;;;1.70;1.60;;;19.70;98.80;;;;;;10506106;28;20275;-78
2023/08/28 15:37:27;;;;;;;1.60;1.50;;;19.70;99.00;;;;;;10508143;28;20217;-78
2023/08/28 15:42:29;;;;;;;2.00;1.90;;;19.70;99.60;;;;;;10506729;28;20217;-78
2023/08/28 15:47:31;;;;;;;2.53;2.33;;;19.70;99.30;;;;;;10497152;28;21565;-78
2023/08/28 15:52:35;;;;;;;3.20;1.80;;;19.60;99.20;;;;;;10500825;28;20216;-78
2023/08/28 15:57:37;;;;;;;1.63;1.53;;;19.60;98.80;;;;;;10503614;28;20189;-78
2023/08/28 16:02:39;;;;;;;1.60;1.50;;;19.60;99.70;;;;;;10508129;28;20224;-78
2023/08/28 16:07:42;;;;;;;3.00;1.83;;;19.60;99.80;;;;;;10503260;28;20235;-78
2023/08/28 16:12:45;;;;;;;2.13;1.70;;;19.60;98.90;;;;;;10505473;28;20250;-79
2023/08/28 16:17:47;;;;;;;1.77;1.67;;;19.50;99.00;;;;;;10502931;28;20631;-78
2023/08/28 16:22:50;;;;;;;1.77;1.67;;;19.50;99.90;;;;;;10504361;28;20235;-78
2023/08/28 16:27:52;;;;;;;2.13;2.03;;;19.50;98.80;;;;;;10500798;28;20726;-78
2023/08/28 16:32:54;;;;;;;1.53;1.47;;;19.50;99.10;;;;;;10505272;28;20220;-78
2023/08/28 16:37:57;;;;;;;2.30;1.97;;;19.50;98.20;;;;;;10501336;28;20213;-78
2023/08/28 16:43:00;;;;;;;2.27;2.10;;;19.40;98.40;;;;;;10501581;28;20225;-79
2023/08/28 16:48:02;;;;;;;1.70;1.60;;;19.30;98.20;;;;;;10496914;28;20229;-78
2023/08/28 16:53:05;;;;;;;2.70;2.07;;;19.30;98.80;;;;;;10499934;28;20231;-77
2023/08/28 16:58:07;;;;;;;4.00;1.97;;;19.20;99.10;;;;;;10506729;28;20205;-78
2023/08/28 17:03:09;;;;;;;1.90;1.80;;;19.20;98.60;;;;;;10509751;28;20250;-78
2023/08/28 17:08:13;;;;;;;2.17;1.80;;;19.20;98.20;;;;;;10508542;28;20216;-78
2023/08/28 17:13:15;;;;;;;2.00;1.90;;;19.20;98.60;;;;;;10510162;28;20715;-78
2023/08/28 17:18:17;;;;;;;2.47;1.83;;;19.10;98.80;;;;;;10507989;28;20615;-78
2023/08/28 17:23:21;;;;;;;2.13;1.73;;;19.10;99.40;;;;;;10522290;22;20263;-76
2023/08/28 17:28:23;;;;;;;3.47;1.90;;;19.10;98.60;;;;;;10516939;28;20260;-78
2023/08/28 17:33:25;;;;;;;2.07;1.97;;;19.10;98.70;;;;;;10498196;28;20212;-78
2023/08/28 17:38:29;;;;;;;2.20;2.00;;;19.10;99.50;;;;;;10499124;28;20217;-78
2023/08/28 17:43:31;;;;;;;1.77;1.67;;;19.10;99.90;;;;;;10463889;28;20229;-77
2023/08/28 17:48:33;;;;;;;1.97;1.83;;;19.00;99.80;;;;;;10499832;28;20308;-78
2023/08/28 17:53:36;;;;;;;3.10;2.30;;;19.00;99.80;;;;;;10488334;28;20232;-76
2023/08/28 17:58:38;;;;;;;2.83;2.13;;;18.90;99.90;;;;;;10521081;28;20205;-77
2023/08/28 18:03:41;;;;;;;6.50;1.87;;;18.90;99.90;;;;;;10499976;28;20217;-78
2023/08/28 18:08:44;;;;;;;1.93;1.83;;;18.90;99.90;;;;;;10496991;28;20225;-78
2023/08/28 18:13:47;;;;;;;2.43;2.20;;;18.90;99.90;;;;;;10494493;28;20229;-77
2023/08/28 18:18:51;;;;;;;2.13;2.03;;;18.80;99.90;;;;;;10474487;28;20209;-78
2023/08/28 18:23:55;;;;;;;2.10;2.00;;;18.80;99.90;;;;;;10474026;28;20271;-77
2023/08/28 18:28:58;;;;;;;2.60;2.50;;;18.80;99.90;;;;;;10490997;28;20244;-76
2023/08/28 18:34:00;;;;;;;2.20;2.10;;;18.80;99.90;;;;;;10475227;28;21007;-79
2023/08/28 18:39:05;;;;;;;2.67;2.57;;;18.80;99.90;;;;;;10491115;28;20197;-78
2023/08/28 18:44:07;;;;;;;2.50;2.40;;;18.70;99.90;;;;;;10493540;28;20727;-78
2023/08/28 18:49:09;;;;;;;5.47;2.00;;;18.70;99.90;;;;;;10499109;28;20221;-78
2023/08/28 18:54:13;;;;;;;3.87;2.40;;;18.60;99.90;;;;;;10498265;28;20274;-77
2023/08/28 18:59:15;;;;;;;3.20;3.00;;;18.50;99.90;;;;;;10500684;28;20208;-78
2023/08/28 19:04:17;;;;;;;4.30;3.80;;;18.40;99.90;;;;;;10498145;28;20248;-79
2023/08/28 19:09:20;;;;;;;4.27;3.93;;;18.40;99.90;;;;;;10481752;28;20279;-78
2023/08/28 19:14:22;;;;;;;3.13;2.93;;;18.20;99.90;;;;;;10480861;28;20217;-78
2023/08/28 19:19:24;;;;;;;3.00;2.80;;;18.10;99.90;;;;;;10498161;28;20201;-77
2023/08/28 19:24:28;;;;;;;3.17;2.97;;;18.10;99.90;;;;;;10498227;28;20582;-77
2023/08/28 19:29:30;;;;;;;3.20;3.00;;;18.00;99.90;;;;;;10494270;28;20236;-78
2023/08/28 19:34:32;;;;;;;2.90;2.70;;;17.90;99.90;;;;;;10492122;28;20232;-78
2023/08/28 19:39:35;;;;;;;3.50;3.30;;;17.90;99.90;;;;;;10483590;28;20221;-78
2023/08/28 19:44:37;;;;;;;4.20;3.80;;;17.80;99.90;;;;;;10491838;28;20728;-78
2023/08/28 19:49:41;;;;;;;3.60;3.40;;;17.80;99.90;;;;;;10495873;28;20719;-77
2023/08/28 19:54:45;;;;;;;3.70;3.50;;;17.70;99.90;;;;;;10496458;28;20704;-77
2023/08/28 19:59:50;;;;;;;3.57;3.27;;;17.70;99.90;;;;;;10492447;28;20228;-75
2023/08/28 20:04:53;;;;;;;4.53;3.10;;;17.60;99.90;;;;;;10498913;28;20224;-78
2023/08/28 20:09:57;;;;;;;3.80;3.50;;;17.60;99.90;;;;;;10493426;28;20244;-78
2023/08/28 20:14:59;;;;;;;3.60;3.50;;;17.50;99.90;;;;;;10496178;28;20230;-77
2023/08/28 20:20:04;;;;;;;3.90;3.60;;;17.50;99.90;;;;;;10491535;28;20205;-78
2023/08/28 20:25:08;;;;;;;3.77;3.50;;;17.60;99.90;;;;;;10474031;28;20233;-79
2023/08/28 20:30:11;;;;;;;5.20;4.53;;;17.50;99.90;;;;;;10494009;28;20243;-77
2023/08/28 20:35:14;;;;;;;3.97;3.70;;;17.60;99.90;;;;;;10481234;28;20611;-77
2023/08/28 20:40:17;;;;;;;4.20;3.90;;;17.70;99.90;;;;;;10500674;28;20288;-76
2023/08/28 20:45:19;;;;;;;4.27;3.97;;;17.70;99.90;;;;;;10482267;28;20233;-78
2023/08/28 20:50:23;;;;;;;3.50;3.30;;;17.80;99.90;;;;;;10498068;28;20217;-78
2023/08/28 20:55:26;;;;;;;4.40;4.10;;;17.90;99.90;;;;;;10500968;28;20229;-79
2023/08/28 21:00:28;;;;;;;3.57;3.37;;;17.90;99.90;;;;;;10499276;28;20221;-77
2023/08/28 21:05:31;;;;;;;3.87;3.67;;;17.90;99.90;;;;;;10500160;28;20228;-77
2023/08/28 21:10:34;;;;;;;3.70;3.50;;;18.00;99.90;;;;;;10498324;28;20242;-78
2023/08/28 21:15:36;;;;;;;11.77;9.00;;;18.00;99.90;;;;;;10498364;28;20229;-78
2023/08/28 21:20:39;;;;;;;7.90;6.50;;;18.00;99.90;;;;;;10497775;28;20217;-77
2023/08/28 21:25:44;;;;;;;3.93;3.63;;;18.10;99.90;;;;;;10458048;28;20263;-77
2023/08/28 21:30:46;;;;;;;4.80;3.07;;;18.10;99.90;;;;;;10490123;28;20217;-77
2023/08/28 21:35:48;;;;;;;3.37;3.17;;;18.10;99.90;;;;;;10490927;28;20225;-77
2023/08/28 21:40:53;;;;;;;3.13;2.97;;;18.10;99.90;;;;;;10492184;28;20202;-76
2023/08/28 21:45:57;;;;;;;3.97;3.60;;;18.10;99.90;;;;;;10491662;28;20237;-77
2023/08/28 21:50:59;;;;;;;3.30;3.00;;;18.10;99.90;;;;;;10489344;28;20217;-77
2023/08/28 21:56:21;;;;;;;5.10;3.20;;;18.10;99.90;;;;;;10490860;28;20713;-77
2023/08/28 22:01:42;;;;;;;3.47;3.17;;;18.10;99.90;;;;;;10489653;28;20691;-77
2023/08/28 22:07:03;;;;;;;3.50;3.30;;;18.10;99.90;;;;;;10447059;28;20221;-77
2023/08/28 22:12:24;;;;;;;3.37;3.17;;;18.00;99.90;;;;;;10470166;28;20696;-77
2023/08/28 22:17:27;;;;;;;3.17;3.00;;;18.00;99.90;;;;;;10490647;28;20325;-77
2023/08/28 22:22:29;;;;;;;3.30;3.10;;;18.00;99.90;;;;;;10479745;28;20318;-77
2023/08/28 22:27:33;;;;;;;3.17;2.97;;;18.00;99.90;;;;;;10498745;28;20224;-77
2023/08/28 22:32:35;;;;;;;2.97;2.77;;;18.00;99.90;;;;;;10498072;28;20355;-77
2023/08/28 22:37:37;;;;;;;3.50;3.20;;;18.00;99.90;;;;;;10477776;28;20645;-76
2023/08/28 22:42:40;;;;;;;2.80;2.70;;;18.00;99.90;;;;;;10496937;28;20225;-77
2023/08/28 22:47:42;;;;;;;2.80;2.70;;;18.00;99.90;;;;;;10496997;28;20232;-77
2023/08/28 22:52:45;;;;;;;3.13;2.93;;;18.00;99.90;;;;;;10497184;28;20252;-76
2023/08/28 22:57:49;;;;;;;2.97;2.77;;;18.00;99.90;;;;;;10441240;28;20196;-76
2023/08/28 23:02:51;;;;;;;3.60;3.30;;;18.00;99.90;;;;;;10496210;28;20633;-77
2023/08/28 23:07:54;;;;;;;2.97;2.80;;;17.90;99.90;;;;;;10496644;28;20275;-77
2023/08/28 23:12:57;;;;;;;2.93;2.73;;;17.90;99.90;;;;;;10495680;28;20233;-76
2023/08/28 23:18:00;;;;;;;3.17;3.00;;;17.90;99.90;;;;;;10478234;28;20292;-76
2023/08/28 23:23:02;;;;;;;3.23;3.07;;;17.90;99.90;;;;;;10519204;22;20207;-77
2023/08/28 23:28:08;;;;;;;3.00;2.80;;;17.90;99.90;;;;;;10540288;28;20313;-77
2023/08/28 23:33:10;;;;;;;3.07;2.87;;;17.90;99.90;;;;;;10500421;28;20289;-76
2023/08/28 23:38:12;;;;;;;3.23;3.00;;;17.80;99.90;;;;;;10522160;28;20207;-77
2023/08/28 23:43:15;;;;;;;2.97;2.77;;;17.80;99.90;;;;;;10519800;28;20635;-77
2023/08/28 23:48:17;;;;;;;2.80;2.70;;;17.80;99.90;;;;;;10506955;28;20224;-77
2023/08/28 23:53:19;;;;;;;3.67;3.47;;;17.80;99.90;;;;;;10540174;28;20246;-77
2023/08/28 23:58:23;;;;;;;3.60;3.40;;;17.70;99.90;;;;;;10541683;28;20622;-77
